EWG78C EDDL-EETN
Flight info
| Callsign | EWG78C |
|---|---|
| Flight time | N/A |
| Altitude | 37000 |
| Route | MEVEL4T/23L MEVEL Y850 BASUM DCT LOMPU DCT NEREN DCT OSTOT DCT OSMUR |
| Aircraft | A21N/M-SDE2E3FGHIRWXY/LB1 |
Departure
| Time | 2026-05-04 16:28 |
|---|---|
| Airport | Düsseldorf Airport (EDDL) |
Arrival
| Time | N/A |
|---|---|
| Airport | Lennart Meri Tallinn Airport (EETN) |
| Time | Latitude | Longitude | Altitude | Speed | Heading |
|---|---|---|---|---|---|
| 2026-05-04 15:56 | 51.28608 | 6.77333 | 133 ft | 0 kts | 322° |
| 2026-05-04 16:14 | 51.28592 | 6.77352 | 133 ft | 3 kts | 322° |
| 2026-05-04 16:14 | 51.28558 | 6.77370 | 134 ft | 3 kts | 19° |
| 2026-05-04 16:15 | 51.28529 | 6.77330 | 135 ft | 2 kts | 53° |
| 2026-05-04 16:21 | 51.28534 | 6.77341 | 135 ft | 3 kts | 53° |
| 2026-05-04 16:22 | 51.28600 | 6.77482 | 135 ft | 11 kts | 52° |
| 2026-05-04 16:22 | 51.28711 | 6.77827 | 135 ft | 13 kts | 52° |
| 2026-05-04 16:23 | 51.28876 | 6.77724 | 134 ft | 11 kts | 323° |
| 2026-05-04 16:24 | 51.29112 | 6.78084 | 138 ft | 17 kts | 52° |
| 2026-05-04 16:25 | 51.29282 | 6.78438 | 152 ft | 23 kts | 53° |
| 2026-05-04 16:26 | 51.29511 | 6.78452 | 157 ft | 7 kts | 233° |
| 2026-05-04 16:26 | 51.29506 | 6.78443 | 156 ft | 0 kts | 233° |
| 2026-05-04 16:27 | 51.29497 | 6.78423 | 156 ft | 19 kts | 233° |
| 2026-05-04 16:28 | 51.28102 | 6.75503 | 590 ft | 149 kts | 231° |
| 2026-05-04 16:28 | 51.26706 | 6.70884 | 2008 ft | 181 kts | 283° |
| 2026-05-04 16:29 | 51.31933 | 6.68797 | 4803 ft | 265 kts | 4° |
| 2026-05-04 16:30 | 51.37746 | 6.69452 | 7855 ft | 287 kts | 4° |
| 2026-05-04 16:31 | 51.41791 | 6.69588 | 10136 ft | 295 kts | 0° |
| 2026-05-04 16:31 | 51.48538 | 6.69608 | 12105 ft | 338 kts | 0° |
| 2026-05-04 16:32 | 51.55743 | 6.69622 | 14633 ft | 352 kts | 0° |
| 2026-05-04 16:33 | 51.60684 | 6.70281 | 16058 ft | 364 kts | 19° |
| 2026-05-04 16:33 | 51.64701 | 6.75201 | 17559 ft | 374 kts | 54° |
| 2026-05-04 16:34 | 51.67779 | 6.82145 | 18977 ft | 386 kts | 56° |
| 2026-05-04 16:34 | 51.69340 | 6.85618 | 19583 ft | 391 kts | 55° |
| 2026-05-04 16:35 | 51.74288 | 6.96365 | 21222 ft | 404 kts | 54° |
| 2026-05-04 16:35 | 51.79352 | 7.07523 | 22655 ft | 417 kts | 54° |
| 2026-05-04 16:36 | 51.81089 | 7.11325 | 23111 ft | 422 kts | 54° |
| 2026-05-04 16:36 | 51.84612 | 7.19045 | 23878 ft | 431 kts | 54° |
| 2026-05-04 16:37 | 51.88644 | 7.26319 | 24483 ft | 437 kts | 46° |
| 2026-05-04 16:37 | 51.90748 | 7.29871 | 24765 ft | 439 kts | 47° |
| 2026-05-04 16:37 | 51.94975 | 7.37084 | 25335 ft | 442 kts | 47° |
| 2026-05-04 16:38 | 51.99244 | 7.44341 | 25863 ft | 446 kts | 46° |
| 2026-05-04 16:39 | 52.05749 | 7.55326 | 26572 ft | 454 kts | 46° |
| 2026-05-04 16:39 | 52.10104 | 7.62767 | 26978 ft | 459 kts | 46° |
| 2026-05-04 16:40 | 52.14579 | 7.70242 | 27405 ft | 463 kts | 45° |
| 2026-05-04 16:40 | 52.19100 | 7.77787 | 27821 ft | 466 kts | 46° |
| 2026-05-04 16:41 | 52.23595 | 7.85478 | 28217 ft | 470 kts | 46° |
| 2026-05-04 16:41 | 52.30388 | 7.97124 | 28739 ft | 475 kts | 46° |
| 2026-05-04 16:42 | 52.37274 | 8.08949 | 29252 ft | 480 kts | 46° |
| 2026-05-04 16:43 | 52.41856 | 8.16871 | 29576 ft | 483 kts | 46° |
| 2026-05-04 16:43 | 52.46488 | 8.24916 | 29901 ft | 486 kts | 46° |
| 2026-05-04 16:43 | 52.48799 | 8.28942 | 30066 ft | 488 kts | 46° |
| 2026-05-04 16:44 | 52.58191 | 8.45316 | 30542 ft | 494 kts | 46° |
| 2026-05-04 16:45 | 52.62903 | 8.53590 | 30815 ft | 496 kts | 46° |
| 2026-05-04 16:46 | 52.69976 | 8.66163 | 31184 ft | 501 kts | 46° |
| 2026-05-04 16:46 | 52.74695 | 8.74539 | 31461 ft | 502 kts | 45° |
| 2026-05-04 16:47 | 52.79776 | 8.82369 | 31753 ft | 498 kts | 34° |
| 2026-05-04 16:47 | 52.85341 | 8.89183 | 32083 ft | 497 kts | 34° |
| 2026-05-04 16:48 | 52.93586 | 8.99586 | 32579 ft | 495 kts | 34° |
| 2026-05-04 16:48 | 52.96318 | 9.03043 | 32752 ft | 494 kts | 34° |
| 2026-05-04 16:49 | 53.01774 | 9.09965 | 33048 ft | 493 kts | 34° |
| 2026-05-04 16:49 | 53.07214 | 9.16909 | 33305 ft | 493 kts | 34° |
| 2026-05-04 16:50 | 53.12598 | 9.23834 | 33553 ft | 492 kts | 34° |
| 2026-05-04 16:50 | 53.18029 | 9.30755 | 33787 ft | 491 kts | 33° |
| 2026-05-04 16:51 | 53.23448 | 9.37669 | 34028 ft | 490 kts | 34° |
| 2026-05-04 16:51 | 53.26146 | 9.41146 | 34125 ft | 490 kts | 34° |
| 2026-05-04 16:51 | 53.31532 | 9.48117 | 34320 ft | 489 kts | 34° |
| 2026-05-04 16:52 | 53.36890 | 9.55121 | 34547 ft | 488 kts | 34° |
| 2026-05-04 16:52 | 53.39561 | 9.58625 | 34658 ft | 486 kts | 34° |
| 2026-05-04 16:53 | 53.44911 | 9.65532 | 34892 ft | 484 kts | 34° |
| 2026-05-04 16:53 | 53.52864 | 9.75960 | 35136 ft | 483 kts | 34° |
| 2026-05-04 16:54 | 53.55519 | 9.79446 | 35204 ft | 482 kts | 34° |
| 2026-05-04 16:55 | 53.66051 | 9.93331 | 35553 ft | 478 kts | 34° |
| 2026-05-04 16:55 | 53.71272 | 10.00236 | 35696 ft | 476 kts | 34° |
| 2026-05-04 16:56 | 53.76475 | 10.07172 | 35825 ft | 476 kts | 35° |
| 2026-05-04 16:56 | 53.84226 | 10.17543 | 36007 ft | 475 kts | 34° |
| 2026-05-04 16:57 | 53.92017 | 10.27934 | 36128 ft | 474 kts | 35° |
| 2026-05-04 16:58 | 54.01476 | 10.40712 | 36235 ft | 474 kts | 35° |
| 2026-05-04 17:00 | 54.16924 | 10.61698 | 36450 ft | 473 kts | 35° |